Prosperity, WV (25909)

1:21 AM EST on February 09, 2016 (GMT -0500)
Raleigh County Memorial | | Change Station
CLOSE
Current Station
Airport
Location: Beckley,
Elevation: 2513 ft
Nearby Weather Stations
Active Advisory: Winter Weather Advisory

Elev 2513 ft 37.79 °N, 81.12 °W | Updated 6 minutes ago

Light Snow
Light Snow Mist
28 °F
Feels Like 21 °F
N
7
Wind Variable Wind from Variable

Today
High -- | Low -- °F
--% Chance of Precip.
Yesterday
High -- | Low -- °F
Precip. -- in
Pressure 29.57 in
Visibility 3.0 miles
Clouds Few 1100 ft
Mostly Cloudy 2600 ft
Overcast 3800 ft
Windchill 21 °F
Dew Point 24 °F
Humidity 85%
Rainfall 0.00 in
Snow Depth Not available.
7:21 AM 5:56 PM
New Moon, 1% visible
SPECI KBKW 090615Z AUTO VRB06KT 3SM -SN BR FEW011 BKN026 OVC038 M02/M04 A2957 RMK AO2 SNB0552 P0000 T10221044
Pressure 29.57 in
Visibility 3.0 miles
Clouds Few 1100 ft
Mostly Cloudy 2600 ft
Overcast 3800 ft
Windchill 21 °F
Dew Point 24 °F
Humidity 85%
Rainfall 0.00 in
Snow Depth Not available.
7:21 AM 5:56 PM
New Moon, 1% visible
SPECI KBKW 090615Z AUTO VRB06KT 3SM -SN BR FEW011 BKN026 OVC038 M02/M04 A2957 RMK AO2 SNB0552 P0000 T10221044

10-Day Weather Forecast

Almanac

Astronomy

Feb. 09, 2016 Rise Set
Actual Time
Civil Twilight
Nautical Twilight
Astronomical Twilight
Moon
Length of Visible Light
Length of Day
Tomorrow will be .
, % of the Moon is Illuminated

Today's Extremes

State Highs State Lows

Community

WunderPhotos

Upload Photos

1,891,571 photos uploaded!

WunderBlog® & News

Nearby

Air Quality

  Air Quality AQ Index Pollutant
Not available.

Snow Depth

Station Depth Elevation

Earthquake Activity

City Distance Mag. Time & Date
Minimum magnitude displayed is 2.5.

Coastal Water Temperatures

Place Temperature

Stations

Nearby Weather Stations

Station Location Temp. Windchill Dew Point Humidity Wind Precip. Elev Updated Type
                   

Watches & Warnings

Winter Weather Advisory
Issued: 9:43 PM EST Feb. 8, 2016 – National Weather Service

... Winter Weather Advisory remains in effect until 7 am EST
Wednesday...

* hazard types... snow.

* Snow accumulations... snow accumulation of 2 to 6 inches over a
36 hour period. Some settling and melting of fallen snow is
expected to occur during the advisory period.

* Timing... snow showers will be around for the mid week period
with varying intensity.

* Impacts... travel may be difficult at times. Visibilities will
be limited at times.

Precautionary/preparedness actions...

A Winter Weather Advisory for snow means that periods of snow
will cause primarily travel difficulties. Be prepared for snow
covered roads and limited visibilities... and use caution while
driving.